createdAt,value
2022-12-01T04:41:37.313Z,100.00
2022-12-01T04:44:40.602Z,100.00
2022-12-01T04:47:43.426Z,100.00
2022-12-01T04:50:49.362Z,100.00
2022-12-01T04:53:51.882Z,100.00
2022-12-01T04:56:54.781Z,100.00
2022-12-01T04:59:57.401Z,100.00
2022-12-01T05:03:00.721Z,100.00
2022-12-01T05:06:05.200Z,100.00
2022-12-01T05:09:14.290Z,100.00
2022-12-01T05:12:19.738Z,100.00
2022-12-01T05:15:22.426Z,100.00
2022-12-01T05:18:24.984Z,100.00
2022-12-01T05:21:27.907Z,100.00
2022-12-01T05:24:30.699Z,100.00
2022-12-01T05:27:33.626Z,100.00
2022-12-01T05:30:36.466Z,100.00
2022-12-01T05:33:39.191Z,100.00
2022-12-01T05:36:42.094Z,100.00
2022-12-01T05:39:47.292Z,100.00
2022-12-01T05:42:50.040Z,100.00
2022-12-01T05:45:55.429Z,100.00
2022-12-01T05:48:58.127Z,100.00
2022-12-01T05:52:03.056Z,100.00
2022-12-01T05:55:07.434Z,100.00
2022-12-01T05:58:10.709Z,100.00
2022-12-01T06:01:13.212Z,100.00
2022-12-01T06:04:16.024Z,100.00
2022-12-01T06:07:18.713Z,100.00
2022-12-01T06:10:21.645Z,100.00
2022-12-01T06:13:24.372Z,100.00
2022-12-01T06:16:27.139Z,100.00
2022-12-01T06:19:29.720Z,100.00
2022-12-01T06:22:32.576Z,100.00
2022-12-01T06:25:35.116Z,100.00
2022-12-01T06:28:38.111Z,100.00
2022-12-01T06:31:40.868Z,100.00
2022-12-01T06:34:46.551Z,100.00
2022-12-01T06:37:49.507Z,100.00
2022-12-01T06:40:52.306Z,100.00
2022-12-01T06:43:54.856Z,100.00
2022-12-01T06:46:57.897Z,100.00
2022-12-01T06:50:00.803Z,100.00
2022-12-01T06:53:04.572Z,100.00
2022-12-01T06:56:07.556Z,100.00
2022-12-01T06:59:13.137Z,100.00
2022-12-01T07:02:17.025Z,100.00
2022-12-01T07:05:20.230Z,100.00
2022-12-01T07:08:22.938Z,100.00
2022-12-01T07:11:25.758Z,100.00
2022-12-01T07:14:28.536Z,100.00
2022-12-01T07:17:31.496Z,100.00
2022-12-01T07:20:34.228Z,100.00
2022-12-01T07:23:37.098Z,100.00
2022-12-01T07:26:41.281Z,100.00
2022-12-01T07:29:44.183Z,100.00
2022-12-01T07:32:46.749Z,100.00
2022-12-01T07:35:49.508Z,100.00
2022-12-01T07:38:52.092Z,100.00
2022-12-01T07:41:57.018Z,100.00
2022-12-01T07:44:59.473Z,100.00
2022-12-01T07:48:04.600Z,100.00
2022-12-01T07:51:10.540Z,100.00
2022-12-01T07:54:17.632Z,100.00
2022-12-01T07:57:20.575Z,100.00
2022-12-01T08:00:23.383Z,100.00
2022-12-01T08:03:26.286Z,100.00
2022-12-01T08:06:28.883Z,100.00
2022-12-01T08:09:31.673Z,100.00
2022-12-01T08:12:34.797Z,100.00
2022-12-01T08:15:42.962Z,100.00
2022-12-01T08:18:46.121Z,100.00
2022-12-01T08:21:49.144Z,100.00
2022-12-01T08:24:52.470Z,100.00
2022-12-01T08:27:55.867Z,100.00
2022-12-01T08:30:58.790Z,100.00
2022-12-01T08:34:04.633Z,100.00
2022-12-01T08:37:07.216Z,90.48
2022-12-01T08:40:10.421Z,88.27
2022-12-01T08:43:23.201Z,94.25
2022-12-01T08:46:36.808Z,96.63
2022-12-01T08:49:39.350Z,98.20
2022-12-01T08:52:42.427Z,97.37
2022-12-01T08:55:44.914Z,97.34
2022-12-01T08:58:48.642Z,98.88
2022-12-01T09:01:52.753Z,99.93
2022-12-01T09:04:55.739Z,96.87
2022-12-01T09:08:17.329Z,96.86
2022-12-01T09:11:25.460Z,98.88
2022-12-01T09:14:28.199Z,97.42
2022-12-01T09:17:31.026Z,98.79
2022-12-01T09:20:33.784Z,97.10
2022-12-01T09:23:36.782Z,98.13
2022-12-01T09:26:39.422Z,99.08
2022-12-01T09:29:42.252Z,100.00
2022-12-01T09:32:45.166Z,98.55
2022-12-01T09:35:48.097Z,98.66
2022-12-01T09:38:51.170Z,98.25
2022-12-01T09:42:30.875Z,95.66
2022-12-01T09:45:42.874Z,93.60
2022-12-01T09:48:48.458Z,92.45
2022-12-01T09:51:53.919Z,90.38
2022-12-01T09:54:59.295Z,91.11
2022-12-01T09:58:05.144Z,90.42
2022-12-01T10:01:17.154Z,91.52
2022-12-01T10:04:45.483Z,85.87
2022-12-01T10:07:55.066Z,87.04
2022-12-01T10:11:16.527Z,81.24
2022-12-01T10:14:21.138Z,77.75
2022-12-01T10:17:42.583Z,77.34
2022-12-01T10:21:11.367Z,75.77
2022-12-01T10:24:45.149Z,77.88
2022-12-01T10:27:53.727Z,74.31
2022-12-01T10:31:08.273Z,74.25
2022-12-01T10:34:22.410Z,73.58
2022-12-01T10:37:28.250Z,72.59
2022-12-01T10:40:35.181Z,74.78
2022-12-01T10:43:43.374Z,75.26
2022-12-01T10:46:52.076Z,71.83
2022-12-01T10:49:55.114Z,70.41
2022-12-01T10:52:57.585Z,68.72
2022-12-01T10:56:10.091Z,68.82
2022-12-01T10:59:27.170Z,68.60
2022-12-01T11:02:33.744Z,68.00
2022-12-01T11:05:41.128Z,65.77
2022-12-01T11:08:52.048Z,67.07
2022-12-01T11:11:57.743Z,67.16
2022-12-01T11:15:01.645Z,65.50
2022-12-01T11:18:19.612Z,64.91
2022-12-01T11:21:28.022Z,66.64
2022-12-01T11:24:44.327Z,67.83
2022-12-01T11:28:01.864Z,65.57
2022-12-01T11:31:13.622Z,67.56
2022-12-01T11:34:25.918Z,66.64
2022-12-01T11:37:37.311Z,67.20
2022-12-01T11:40:51.051Z,69.21
2022-12-01T11:44:01.619Z,69.34
2022-12-01T11:47:23.189Z,70.01
2022-12-01T11:50:31.031Z,69.56
2022-12-01T11:53:44.388Z,70.41
2022-12-01T11:56:56.062Z,67.52
2022-12-01T12:00:18.190Z,67.73
2022-12-01T12:03:41.303Z,65.51
2022-12-01T12:06:49.842Z,62.94
2022-12-01T12:10:14.363Z,64.53
2022-12-01T12:13:30.806Z,64.43
2022-12-01T12:17:04.322Z,65.95
2022-12-01T12:20:27.810Z,67.60
2022-12-01T12:23:36.794Z,69.18
2022-12-01T12:26:42.663Z,67.88
2022-12-01T12:30:26.173Z,67.75
2022-12-01T12:34:15.461Z,67.20
2022-12-01T12:37:25.123Z,63.57
2022-12-01T12:40:53.196Z,63.82
2022-12-01T12:43:58.755Z,63.58
2022-12-01T12:47:22.332Z,64.60
2022-12-01T12:50:48.221Z,63.76
2022-12-01T12:53:59.923Z,63.46
2022-12-01T12:57:19.509Z,61.49
2022-12-01T13:00:26.286Z,62.78
2022-12-01T13:03:51.587Z,63.47
2022-12-01T13:07:30.580Z,64.53
2022-12-01T13:10:58.230Z,65.27
2022-12-01T13:14:11.755Z,65.96
2022-12-01T13:17:32.158Z,65.78
2022-12-01T13:20:35.566Z,66.59
2022-12-01T13:23:42.934Z,66.06
2022-12-01T13:26:50.115Z,67.48
2022-12-01T13:29:54.917Z,67.79
2022-12-01T13:33:04.507Z,68.68
2022-12-01T13:36:44.979Z,69.00
2022-12-01T13:39:40.474Z,66.93
2022-12-01T13:42:51.643Z,67.67
2022-12-01T13:46:03.734Z,66.48
2022-12-01T13:49:35.055Z,67.08
2022-12-01T13:52:48.818Z,67.26
2022-12-01T13:56:03.808Z,67.87
2022-12-01T13:59:40.424Z,66.11
2022-12-01T14:02:43.888Z,66.16
2022-12-01T14:05:53.271Z,66.54
2022-12-01T14:09:02.709Z,65.30
2022-12-01T14:12:11.692Z,66.74
2022-12-01T14:15:29.084Z,67.73
2022-12-01T14:18:45.113Z,69.37
2022-12-01T14:21:49.711Z,69.93
2022-12-01T14:24:53.319Z,70.54
2022-12-01T14:27:57.754Z,71.32
2022-12-01T14:31:06.355Z,72.83
2022-12-01T14:34:19.341Z,74.46
2022-12-01T14:37:27.538Z,76.76
2022-12-01T14:40:30.441Z,77.86
2022-12-01T14:43:51.639Z,79.27
2022-12-01T14:47:19.773Z,81.94
2022-12-01T14:50:31.901Z,83.60
2022-12-01T14:53:40.815Z,85.07
2022-12-01T14:56:46.958Z,85.73
2022-12-01T15:00:05.102Z,87.14
2022-12-01T15:03:13.187Z,87.68
2022-12-01T15:06:21.542Z,88.20
2022-12-01T15:09:33.348Z,88.24
2022-12-01T15:12:37.160Z,88.66
2022-12-01T15:15:53.793Z,87.37
2022-12-01T15:18:58.618Z,88.69
2022-12-01T15:22:13.521Z,88.47
2022-12-01T15:25:16.090Z,89.29
2022-12-01T15:28:33.473Z,89.56
2022-12-01T15:31:36.355Z,89.48
2022-12-01T15:34:45.485Z,90.44
2022-12-01T15:37:49.083Z,90.66
2022-12-01T15:41:27.899Z,90.39
2022-12-01T15:44:42.163Z,90.99
2022-12-01T15:47:48.900Z,91.06
2022-12-01T15:51:07.233Z,91.17
2022-12-01T15:54:22.653Z,92.59
2022-12-01T15:57:25.302Z,91.79
2022-12-01T16:00:28.963Z,92.22
2022-12-01T16:03:37.009Z,92.65
2022-12-01T16:06:40.628Z,95.10
2022-12-01T16:09:57.909Z,94.42
2022-12-01T16:13:38.429Z,94.71
2022-12-01T16:16:46.986Z,95.36
2022-12-01T16:20:15.104Z,96.08
2022-12-01T16:23:25.566Z,96.82
2022-12-01T16:26:29.724Z,98.21
2022-12-01T16:29:58.260Z,100.00
2022-12-01T16:33:03.451Z,100.00
